createdAt,value
2023-03-22T00:01:14.568Z,100.00
2023-03-22T00:03:42.678Z,100.00
2023-03-22T00:06:09.852Z,100.00
2023-03-22T00:08:36.930Z,100.00
2023-03-22T00:11:04.922Z,100.00
2023-03-22T00:13:35.024Z,100.00
2023-03-22T00:16:03.034Z,100.00
2023-03-22T00:18:30.566Z,100.00
2023-03-22T00:20:59.441Z,100.00
2023-03-22T00:23:27.803Z,100.00
2023-03-22T00:25:55.336Z,100.00
2023-03-22T00:28:22.662Z,100.00
2023-03-22T00:30:58.719Z,100.00
2023-03-22T00:33:27.960Z,100.00
2023-03-22T00:35:58.838Z,100.00
2023-03-22T00:38:41.203Z,100.00
2023-03-22T00:41:13.728Z,100.00
2023-03-22T00:43:41.204Z,100.00
2023-03-22T00:46:08.793Z,100.00
2023-03-22T00:48:36.205Z,100.00
2023-03-22T00:51:03.542Z,100.00
2023-03-22T00:53:33.179Z,100.00
2023-03-22T00:56:00.452Z,100.00
2023-03-22T00:58:32.221Z,100.00
2023-03-22T01:00:59.058Z,100.00
2023-03-22T01:03:27.264Z,100.00
2023-03-22T01:05:55.977Z,100.00
2023-03-22T01:08:24.546Z,100.00
2023-03-22T01:10:52.075Z,100.00
2023-03-22T01:13:19.035Z,100.00
2023-03-22T01:15:48.050Z,100.00
2023-03-22T01:18:16.262Z,100.00
2023-03-22T01:20:43.861Z,100.00
2023-03-22T01:23:10.930Z,100.00
2023-03-22T01:25:37.825Z,100.00
2023-03-22T03:08:12.851Z,100.00
2023-03-22T03:10:42.356Z,100.00
2023-03-22T03:13:16.786Z,100.00
2023-03-22T03:15:48.871Z,100.00
2023-03-22T03:18:40.848Z,100.00
2023-03-22T03:21:07.659Z,100.00
2023-03-22T03:23:53.279Z,100.00
2023-03-22T03:26:44.329Z,100.00
2023-03-22T03:29:29.592Z,100.00
2023-03-22T06:18:09.362Z,100.00
2023-03-22T06:20:41.642Z,100.00
2023-03-22T06:23:15.068Z,100.00
2023-03-22T06:25:45.327Z,100.00
2023-03-22T06:28:12.676Z,100.00
2023-03-22T06:30:47.366Z,100.00
2023-03-22T06:33:19.945Z,100.00
2023-03-22T06:35:53.036Z,100.00
2023-03-22T06:38:29.048Z,100.00
2023-03-22T06:40:56.307Z,100.00
2023-03-22T06:43:23.145Z,100.00
2023-03-22T06:45:57.470Z,100.00
2023-03-22T06:48:36.868Z,100.00
2023-03-22T06:51:07.069Z,100.00
2023-03-22T06:53:35.930Z,100.00
2023-03-22T06:56:04.282Z,100.00
2023-03-22T06:58:38.532Z,100.00
2023-03-22T07:01:05.756Z,100.00
2023-03-22T07:03:34.131Z,100.00
2023-03-22T07:06:08.784Z,100.00
2023-03-22T07:08:39.540Z,100.00
2023-03-22T07:11:08.104Z,100.00
2023-03-22T07:13:35.692Z,100.00
2023-03-22T07:16:10.216Z,100.00
2023-03-22T07:18:45.041Z,100.00
2023-03-22T07:21:12.265Z,100.00
2023-03-22T07:23:43.542Z,100.00
2023-03-22T07:26:14.563Z,100.00
2023-03-22T07:28:44.898Z,100.00
2023-03-22T07:31:14.361Z,100.00
2023-03-22T07:33:52.382Z,100.00
2023-03-22T07:36:24.173Z,100.00
2023-03-22T07:38:52.407Z,100.00
2023-03-22T07:41:40.435Z,100.00
2023-03-22T07:44:18.225Z,100.00
2023-03-22T08:58:20.429Z,100.00
2023-03-22T09:00:56.819Z,100.00
2023-03-22T09:03:47.281Z,100.00
2023-03-22T09:06:14.923Z,100.00
2023-03-22T09:08:52.404Z,100.00
2023-03-22T09:11:22.519Z,100.00
2023-03-22T09:13:51.242Z,100.00
2023-03-22T09:16:19.278Z,100.00
2023-03-22T09:18:47.191Z,100.00
2023-03-22T09:21:22.040Z,100.00
2023-03-22T09:23:53.302Z,100.00
2023-03-22T09:26:27.257Z,100.00
2023-03-22T09:28:56.201Z,100.00
2023-03-22T09:31:26.002Z,100.00
2023-03-22T09:34:06.549Z,100.00
2023-03-22T09:36:35.310Z,100.00
2023-03-22T09:39:07.478Z,100.00
2023-03-22T09:41:41.300Z,100.00
2023-03-22T09:44:16.371Z,100.00
2023-03-22T10:03:44.258Z,100.00
2023-03-22T10:06:37.456Z,100.00
2023-03-22T10:09:19.700Z,100.00
2023-03-22T10:11:54.231Z,100.00
2023-03-22T10:14:30.832Z,100.00
2023-03-22T10:17:00.708Z,100.00
2023-03-22T10:19:40.403Z,100.00
2023-03-22T10:22:15.854Z,100.00
2023-03-22T10:24:47.054Z,100.00
2023-03-22T10:27:22.849Z,100.00
2023-03-22T10:29:55.985Z,100.00
2023-03-22T10:32:45.239Z,100.00
2023-03-22T11:12:29.558Z,100.00
2023-03-22T11:14:56.605Z,100.00
2023-03-22T11:17:26.121Z,100.00
2023-03-22T11:20:07.799Z,100.00
2023-03-22T11:22:49.652Z,100.00
2023-03-22T11:25:28.438Z,100.00
2023-03-22T11:28:17.080Z,100.00
2023-03-22T11:31:18.360Z,100.00
2023-03-22T11:34:15.826Z,100.00
2023-03-22T12:03:27.431Z,100.00
2023-03-22T12:05:55.246Z,100.00
2023-03-22T12:08:46.443Z,100.00
2023-03-22T12:11:41.253Z,100.00
2023-03-22T12:14:25.148Z,100.00
2023-03-22T12:17:00.182Z,100.00
2023-03-22T12:19:58.762Z,100.00
2023-03-22T12:22:33.206Z,100.00
2023-03-22T12:25:01.720Z,100.00
2023-03-22T12:27:37.646Z,100.00
2023-03-22T12:30:04.651Z,100.00
2023-03-22T12:32:36.980Z,100.00
2023-03-22T12:35:16.662Z,100.00
2023-03-22T12:37:48.461Z,100.00
2023-03-22T12:40:23.058Z,100.00
2023-03-22T12:43:00.143Z,100.00
2023-03-22T12:45:29.618Z,99.37
2023-03-22T12:48:18.254Z,97.75
2023-03-22T12:50:52.367Z,97.33
2023-03-22T12:53:21.359Z,98.08
2023-03-22T12:55:49.533Z,97.19
2023-03-22T12:58:22.451Z,99.39
2023-03-22T13:00:58.379Z,100.00
2023-03-22T13:03:29.370Z,99.40
2023-03-22T13:06:05.834Z,98.72
2023-03-22T13:09:04.610Z,97.69
2023-03-22T13:11:31.710Z,97.91
2023-03-22T13:13:58.506Z,97.37
2023-03-22T13:16:53.516Z,97.92
2023-03-22T13:19:36.338Z,96.33
2023-03-22T13:22:21.188Z,95.22
2023-03-22T13:25:17.328Z,93.32
2023-03-22T13:28:05.352Z,92.34
2023-03-22T13:30:49.265Z,91.15
2023-03-22T13:33:30.242Z,90.63
2023-03-22T13:36:05.937Z,89.62
2023-03-22T13:38:38.048Z,87.38
2023-03-22T13:41:07.953Z,82.44
2023-03-22T13:43:50.455Z,81.04
2023-03-22T13:46:20.879Z,80.79
2023-03-22T13:48:48.463Z,79.52
2023-03-22T13:51:22.144Z,78.24
2023-03-22T13:54:07.514Z,76.65
2023-03-22T13:56:52.515Z,76.62
2023-03-22T13:59:30.043Z,77.81
2023-03-22T14:02:15.760Z,78.76
2023-03-22T14:04:56.188Z,79.34
2023-03-22T14:07:27.215Z,79.33
2023-03-22T14:10:02.304Z,80.25
2023-03-22T14:12:45.577Z,81.98
2023-03-22T14:15:17.808Z,82.79
2023-03-22T14:17:56.407Z,84.57
2023-03-22T14:20:29.709Z,84.54
2023-03-22T14:53:47.432Z,83.10
2023-03-22T14:56:19.001Z,81.80
2023-03-22T14:58:48.562Z,81.03
2023-03-22T15:01:26.104Z,81.12
2023-03-22T15:03:58.095Z,82.86
2023-03-22T15:06:27.335Z,82.57
2023-03-22T15:08:54.576Z,82.49
2023-03-22T15:11:22.144Z,82.57
2023-03-22T15:13:52.180Z,80.90
2023-03-22T15:16:22.366Z,79.39
2023-03-22T15:18:52.490Z,78.00
2023-03-22T15:21:19.728Z,77.37
2023-03-22T15:23:55.040Z,73.17
2023-03-22T15:26:28.123Z,71.28
2023-03-22T15:28:57.104Z,69.89
2023-03-22T15:31:33.541Z,69.19
2023-03-22T15:34:03.808Z,68.12
2023-03-22T15:36:33.404Z,68.91
2023-03-22T15:39:06.746Z,70.08
2023-03-22T15:41:44.047Z,72.35
2023-03-22T15:44:26.676Z,73.97
2023-03-22T15:47:14.328Z,74.25
2023-03-22T15:49:45.601Z,76.00
2023-03-22T15:52:12.505Z,77.80
2023-03-22T15:54:56.556Z,75.43
2023-03-22T15:57:37.097Z,75.10
2023-03-22T16:00:19.460Z,74.77
2023-03-22T16:02:52.584Z,75.92
2023-03-22T16:05:21.381Z,76.37
2023-03-22T16:07:48.365Z,76.10
2023-03-22T16:10:20.775Z,77.61
2023-03-22T16:12:48.994Z,78.81
2023-03-22T16:15:19.866Z,79.74
2023-03-22T16:17:47.151Z,80.79
2023-03-22T16:20:15.889Z,81.03
2023-03-22T16:22:45.143Z,80.26
2023-03-22T16:25:19.356Z,80.65
2023-03-22T16:27:46.378Z,80.96
2023-03-22T16:30:14.774Z,81.34
2023-03-22T16:32:43.446Z,81.67
2023-03-22T16:35:16.529Z,81.55
2023-03-22T16:37:44.130Z,81.93
2023-03-22T16:40:16.479Z,83.03
2023-03-22T16:42:43.717Z,83.12
2023-03-22T16:45:19.713Z,83.87
2023-03-22T16:47:47.458Z,85.63
2023-03-22T16:50:14.521Z,85.03
2023-03-22T16:52:41.613Z,84.71
2023-03-22T16:55:22.404Z,85.52
2023-03-22T16:57:50.078Z,85.68
2023-03-22T17:00:19.612Z,87.19
2023-03-22T17:02:49.184Z,87.15
2023-03-22T17:05:21.680Z,87.46
2023-03-22T17:07:50.217Z,87.57
2023-03-22T17:10:20.000Z,87.14
2023-03-22T17:12:49.786Z,87.14
2023-03-22T17:15:29.068Z,87.95
2023-03-22T17:17:56.059Z,88.83
2023-03-22T17:20:23.606Z,88.60
2023-03-22T17:22:50.800Z,88.54
2023-03-22T17:25:21.681Z,88.87
2023-03-22T17:27:48.711Z,90.15
2023-03-22T17:30:16.034Z,90.06
2023-03-22T17:32:57.844Z,90.64
2023-03-22T17:35:30.648Z,90.92
2023-03-22T17:37:59.245Z,90.74
2023-03-22T17:40:33.112Z,92.47
2023-03-22T17:43:07.033Z,95.93
2023-03-22T17:46:00.998Z,97.85
2023-03-22T17:48:23.223Z,98.53
2023-03-22T17:50:50.679Z,100.00
2023-03-22T17:53:29.236Z,100.00
2023-03-22T17:56:43.863Z,100.00
2023-03-22T17:58:52.284Z,100.00
2023-03-22T18:01:21.612Z,100.00
2023-03-22T18:03:48.957Z,100.00
2023-03-22T18:06:16.430Z,100.00
2023-03-22T18:08:44.946Z,100.00
2023-03-22T18:11:15.284Z,100.00
2023-03-22T18:13:44.462Z,100.00
2023-03-22T18:16:11.901Z,100.00
2023-03-22T18:18:38.930Z,100.00
2023-03-22T18:21:15.740Z,100.00
2023-03-22T18:23:43.381Z,100.00
2023-03-22T18:26:27.340Z,100.00
2023-03-22T18:28:56.039Z,100.00
2023-03-22T18:31:23.293Z,100.00
2023-03-22T18:33:50.608Z,100.00
2023-03-22T18:36:18.020Z,100.00
2023-03-22T18:39:30.400Z,100.00
2023-03-22T18:41:45.987Z,100.00
2023-03-22T18:44:14.981Z,100.00
2023-03-22T18:46:43.730Z,100.00
2023-03-22T18:49:11.191Z,100.00
2023-03-22T18:54:11.066Z,100.00
2023-03-22T18:56:38.462Z,100.00
2023-03-22T18:59:06.350Z,100.00
2023-03-22T19:01:33.533Z,100.00
2023-03-22T19:04:00.634Z,100.00
2023-03-22T19:06:27.601Z,100.00
2023-03-22T19:08:54.915Z,100.00
2023-03-22T19:11:22.838Z,100.00
2023-03-22T19:16:33.308Z,100.00
2023-03-22T19:19:01.809Z,100.00
2023-03-22T19:21:32.349Z,100.00
2023-03-22T19:23:59.771Z,100.00
2023-03-22T19:26:27.964Z,100.00
2023-03-22T19:28:58.564Z,100.00
